createdAt,value
2018-04-15T00:01:14.333Z,18.80
2018-04-15T00:03:42.844Z,18.80
2018-04-15T00:06:10.616Z,18.80
2018-04-15T00:08:39.136Z,18.90
2018-04-15T00:11:06.911Z,18.90
2018-04-15T00:13:35.375Z,18.70
2018-04-15T00:16:03.110Z,18.70
2018-04-15T00:18:30.814Z,18.60
2018-04-15T00:20:58.640Z,18.50
2018-04-15T00:23:26.322Z,18.00
2018-04-15T00:25:53.967Z,17.80
2018-04-15T00:28:22.537Z,18.30
2018-04-15T00:30:50.225Z,18.30
2018-04-15T00:33:17.909Z,18.40
2018-04-15T00:35:45.564Z,18.50
2018-04-15T00:38:14.050Z,18.80
2018-04-15T00:40:41.699Z,18.80
2018-04-15T00:43:09.363Z,18.80
2018-04-15T00:45:37.017Z,18.80
2018-04-15T00:48:04.764Z,18.50
2018-04-15T00:50:33.263Z,17.90
2018-04-15T00:53:00.944Z,17.90
2018-04-15T00:55:28.583Z,16.90
2018-04-15T00:57:56.354Z,17.20
2018-04-15T01:00:24.154Z,17.70
2018-04-15T01:02:51.893Z,17.90
2018-04-15T01:05:19.612Z,18.20
2018-04-15T01:07:47.309Z,18.30
2018-04-15T01:10:15.064Z,18.30
2018-04-15T01:12:42.749Z,18.20
2018-04-15T01:15:10.460Z,18.20
2018-04-15T01:17:38.228Z,18.00
2018-04-15T01:20:05.929Z,17.70
2018-04-15T01:22:33.668Z,17.70
2018-04-15T01:25:01.405Z,17.60
2018-04-15T01:27:29.040Z,17.50
2018-04-15T01:29:56.739Z,17.30
2018-04-15T01:32:24.401Z,16.70
2018-04-15T01:34:52.136Z,16.50
2018-04-15T01:37:19.849Z,15.70
2018-04-15T01:39:47.586Z,15.60
2018-04-15T01:42:15.273Z,15.30
2018-04-15T01:44:42.995Z,15.30
2018-04-15T01:47:10.683Z,15.60
2018-04-15T01:49:38.449Z,15.20
2018-04-15T01:52:06.207Z,15.50
2018-04-15T01:54:33.939Z,16.30
2018-04-15T01:57:01.665Z,15.30
2018-04-15T01:59:29.311Z,15.40
2018-04-15T02:01:57.882Z,15.20
2018-04-15T02:04:25.675Z,15.20
2018-04-15T02:06:54.146Z,15.50
2018-04-15T02:09:21.821Z,15.50
2018-04-15T02:11:49.510Z,15.20
2018-04-15T02:14:17.194Z,15.70
2018-04-15T02:16:45.828Z,15.00
2018-04-15T02:19:13.553Z,15.00
2018-04-15T02:21:41.199Z,15.60
2018-04-15T02:24:08.934Z,16.30
2018-04-15T02:26:36.654Z,15.90
2018-04-15T02:29:04.417Z,15.90
2018-04-15T02:31:32.116Z,15.20
2018-04-15T02:33:59.821Z,15.50
2018-04-15T02:36:28.256Z,15.20
2018-04-15T02:38:56.085Z,15.20
2018-04-15T02:41:23.738Z,15.70
2018-04-15T02:43:51.483Z,15.20
2018-04-15T02:46:19.194Z,15.70
2018-04-15T02:48:46.927Z,15.30
2018-04-15T02:51:14.607Z,15.20
2018-04-15T02:53:42.396Z,15.30
2018-04-15T02:56:10.176Z,16.20
2018-04-15T02:58:37.900Z,16.70
2018-04-15T03:01:06.342Z,15.70
2018-04-15T03:03:34.095Z,15.60
2018-04-15T03:06:01.753Z,15.30
2018-04-15T03:08:29.501Z,15.30
2018-04-15T03:10:57.135Z,15.30
2018-04-15T03:13:24.786Z,14.80
2018-04-15T03:15:52.532Z,14.70
2018-04-15T03:18:20.179Z,14.70
2018-04-15T03:20:47.868Z,14.70
2018-04-15T03:23:15.533Z,15.20
2018-04-15T03:25:43.272Z,15.20
2018-04-15T03:28:10.921Z,15.50
2018-04-15T03:30:38.644Z,15.80
2018-04-15T03:33:06.346Z,15.70
2018-04-15T03:35:34.118Z,15.20
2018-04-15T03:38:01.897Z,15.70
2018-04-15T03:40:29.567Z,14.70
2018-04-15T03:42:57.203Z,15.60
2018-04-15T03:45:24.910Z,15.30
2018-04-15T03:47:52.546Z,15.50
2018-04-15T03:50:20.181Z,14.40
2018-04-15T03:52:47.866Z,14.90
2018-04-15T03:55:16.332Z,15.60
2018-04-15T03:57:44.099Z,15.60
2018-04-15T04:00:11.789Z,15.80
2018-04-15T04:02:39.444Z,14.90
2018-04-15T04:05:07.460Z,15.10
2018-04-15T04:07:35.165Z,14.50
2018-04-15T04:10:02.887Z,14.80
2018-04-15T04:12:30.679Z,14.70
2018-04-15T04:14:58.345Z,15.30
2018-04-15T04:17:37.834Z,15.10
2018-04-15T04:20:18.247Z,15.30
2018-04-15T04:22:57.896Z,15.70
2018-04-15T04:25:37.200Z,15.40
2018-04-15T04:28:04.900Z,15.30
2018-04-15T04:30:32.622Z,15.10
2018-04-15T04:33:00.328Z,15.30
2018-04-15T04:35:27.981Z,15.00
2018-04-15T04:37:56.451Z,15.30
2018-04-15T04:40:24.117Z,15.30
2018-04-15T04:42:51.815Z,14.70
2018-04-15T04:45:19.459Z,14.90
2018-04-15T04:47:47.217Z,14.90
2018-04-15T04:50:14.997Z,14.90
2018-04-15T04:52:42.694Z,14.30
2018-04-15T04:55:10.342Z,14.30
2018-04-15T04:57:38.798Z,14.50
2018-04-15T05:00:06.466Z,14.40
2018-04-15T05:02:34.109Z,14.10
2018-04-15T05:05:01.776Z,14.00
2018-04-15T05:07:29.412Z,13.90
2018-04-15T05:09:57.175Z,14.50
2018-04-15T05:12:24.847Z,14.80
2018-04-15T05:14:52.533Z,15.00
2018-04-15T05:17:20.208Z,15.00
2018-04-15T05:19:47.880Z,15.10
2018-04-15T05:22:15.523Z,14.80
2018-04-15T05:24:43.237Z,15.20
2018-04-15T05:27:10.909Z,14.80
2018-04-15T05:29:38.709Z,15.00
2018-04-15T05:32:07.128Z,14.60
2018-04-15T05:34:34.956Z,14.60
2018-04-15T05:37:03.441Z,15.40
2018-04-15T05:39:31.095Z,15.40
2018-04-15T05:41:58.824Z,14.90
2018-04-15T05:44:27.240Z,14.50
2018-04-15T05:46:54.944Z,14.40
2018-04-15T05:49:22.613Z,15.00
2018-04-15T05:51:50.275Z,15.40
2018-04-15T05:54:17.925Z,14.40
2018-04-15T05:56:45.601Z,14.60
2018-04-15T05:59:14.062Z,15.20
2018-04-15T06:01:41.728Z,15.20
2018-04-15T06:04:09.630Z,15.90
2018-04-15T06:06:37.297Z,15.90
2018-04-15T06:09:05.719Z,15.90
2018-04-15T06:11:33.377Z,15.60
2018-04-15T06:14:01.783Z,16.10
2018-04-15T06:16:29.501Z,16.10
2018-04-15T06:18:57.215Z,16.40
2018-04-15T06:21:24.924Z,16.30
2018-04-15T06:23:52.570Z,15.90
2018-04-15T06:26:20.226Z,16.30
2018-04-15T06:28:47.858Z,16.60
2018-04-15T06:31:15.512Z,15.80
2018-04-15T06:33:43.157Z,16.00
2018-04-15T06:36:11.594Z,15.20
2018-04-15T06:38:39.223Z,15.20
2018-04-15T06:41:06.881Z,15.50
2018-04-15T06:43:34.528Z,15.90
2018-04-15T06:46:02.228Z,16.20
2018-04-15T06:48:29.885Z,16.10
2018-04-15T06:50:57.512Z,16.10
2018-04-15T06:53:25.970Z,16.80
2018-04-15T06:55:53.635Z,16.70
2018-04-15T06:58:21.289Z,18.50
2018-04-15T07:00:48.925Z,20.30
2018-04-15T07:03:17.342Z,21.50
2018-04-15T07:05:44.960Z,21.50
2018-04-15T07:08:12.608Z,21.60
2018-04-15T07:10:40.219Z,19.20
2018-04-15T07:13:07.897Z,17.50
2018-04-15T07:15:35.544Z,17.40
2018-04-15T07:18:03.238Z,17.00
2018-04-15T07:20:30.899Z,15.30
2018-04-15T07:22:58.561Z,15.30
2018-04-15T07:25:26.224Z,15.10
2018-04-15T07:27:53.877Z,15.70
2018-04-15T07:30:21.507Z,16.30
2018-04-15T07:32:49.137Z,15.80
2018-04-15T07:35:16.831Z,16.40
2018-04-15T07:37:44.464Z,17.40
2018-04-15T07:40:12.127Z,18.20
2018-04-15T07:42:39.781Z,19.10
2018-04-15T07:45:07.454Z,18.60
2018-04-15T07:47:35.101Z,18.40
2018-04-15T07:50:02.975Z,18.30
2018-04-15T07:52:30.617Z,17.30
2018-04-15T07:54:58.317Z,17.40
2018-04-15T07:57:26.141Z,17.80
2018-04-15T07:59:54.673Z,16.80
2018-04-15T08:02:22.357Z,16.80
2018-04-15T08:04:50.092Z,18.30
2018-04-15T08:07:17.828Z,18.00
2018-04-15T08:09:45.478Z,19.60
2018-04-15T08:12:13.144Z,18.40
2018-04-15T08:14:40.832Z,18.60
2018-04-15T08:17:08.564Z,20.60
2018-04-15T08:19:36.272Z,18.60
2018-04-15T08:22:04.035Z,20.00
2018-04-15T08:24:32.437Z,19.10
2018-04-15T08:27:00.888Z,17.80
2018-04-15T08:29:28.592Z,17.80
2018-04-15T08:31:56.309Z,18.60
2018-04-15T08:34:24.014Z,19.70
2018-04-15T08:36:51.666Z,19.50
2018-04-15T08:39:19.328Z,20.90
2018-04-15T08:41:46.959Z,20.10
2018-04-15T08:44:14.638Z,19.80
2018-04-15T08:46:43.077Z,20.00
2018-04-15T08:49:10.706Z,19.90
2018-04-15T08:51:39.748Z,19.20
2018-04-15T08:54:07.413Z,19.30
2018-04-15T08:56:35.055Z,18.40
2018-04-15T08:59:02.730Z,18.70
2018-04-15T09:01:30.380Z,19.00
2018-04-15T09:03:58.072Z,20.20
2018-04-15T09:06:25.707Z,20.10
2018-04-15T09:08:53.395Z,21.30
2018-04-15T09:11:21.055Z,20.90
2018-04-15T09:13:48.770Z,21.00
2018-04-15T09:16:16.397Z,19.70
2018-04-15T09:18:44.037Z,20.40
2018-04-15T09:21:12.411Z,20.40
2018-04-15T09:23:40.078Z,20.40
2018-04-15T09:26:07.696Z,21.10
2018-04-15T09:28:35.373Z,21.10
2018-04-15T09:31:08.620Z,20.80
2018-04-15T09:33:36.276Z,20.10
2018-04-15T09:36:03.905Z,21.00
2018-04-15T09:38:32.315Z,21.40
2018-04-15T09:40:59.968Z,21.40
2018-04-15T09:43:28.362Z,22.10
2018-04-15T09:45:56.114Z,22.10
2018-04-15T09:48:23.737Z,21.30
2018-04-15T09:50:51.416Z,20.70
2018-04-15T09:53:19.097Z,19.70
2018-04-15T09:55:46.770Z,20.30
2018-04-15T09:58:14.389Z,21.90
2018-04-15T10:00:42.085Z,20.40
2018-04-15T10:03:10.495Z,20.70
2018-04-15T10:05:38.131Z,20.60
2018-04-15T10:08:05.788Z,21.20
2018-04-15T10:10:33.468Z,21.40
2018-04-15T10:13:01.104Z,20.70
2018-04-15T10:15:28.741Z,20.40
2018-04-15T10:17:57.163Z,20.40
2018-04-15T10:20:24.818Z,20.40
2018-04-15T10:22:53.247Z,21.80
2018-04-15T10:25:20.945Z,21.80
2018-04-15T10:27:48.573Z,22.10
2018-04-15T10:30:16.217Z,20.80
2018-04-15T10:32:43.907Z,19.80
2018-04-15T10:35:12.413Z,20.40
2018-04-15T10:37:40.030Z,20.40
2018-04-15T10:40:07.709Z,19.60
2018-04-15T10:42:35.361Z,21.50
2018-04-15T10:45:03.075Z,20.30
2018-04-15T10:47:30.905Z,21.30
2018-04-15T10:49:58.531Z,20.60
2018-04-15T10:52:26.988Z,21.80
2018-04-15T10:54:54.639Z,21.80
2018-04-15T10:57:23.078Z,20.90
2018-04-15T10:59:50.734Z,20.90
2018-04-15T11:02:18.383Z,20.40
2018-04-15T11:04:46.043Z,20.50
2018-04-15T11:07:13.690Z,20.30
2018-04-15T11:09:41.316Z,20.90
2018-04-15T11:12:09.240Z,21.30
2018-04-15T11:14:36.904Z,20.80
2018-04-15T11:17:04.981Z,20.20
2018-04-15T11:19:32.627Z,20.10
2018-04-15T11:22:00.277Z,20.60
2018-04-15T11:24:27.930Z,19.80
2018-04-15T11:26:55.587Z,20.50
2018-04-15T11:29:23.248Z,20.30
2018-04-15T11:31:50.956Z,19.50
2018-04-15T11:34:18.656Z,20.30
2018-04-15T11:36:47.071Z,21.50
2018-04-15T11:39:14.758Z,21.50
2018-04-15T11:41:42.423Z,21.20
2018-04-15T11:44:10.096Z,21.40
2018-04-15T11:46:37.833Z,21.70
2018-04-15T11:49:05.480Z,20.90
2018-04-15T11:51:33.140Z,21.20
2018-04-15T11:54:00.795Z,21.20
2018-04-15T11:56:28.600Z,20.80
2018-04-15T11:58:56.284Z,21.70
2018-04-15T12:01:23.912Z,20.50
2018-04-15T12:03:52.325Z,21.80
2018-04-15T12:06:19.960Z,21.80
2018-04-15T12:08:48.417Z,20.20
2018-04-15T12:11:16.083Z,20.20
2018-04-15T12:13:43.744Z,21.10
2018-04-15T12:16:11.368Z,21.10
2018-04-15T12:18:39.003Z,21.10
2018-04-15T12:21:06.641Z,20.50
2018-04-15T12:23:35.032Z,21.20
2018-04-15T12:26:03.524Z,21.10
2018-04-15T12:28:32.977Z,21.50
2018-04-15T12:31:00.890Z,21.40
2018-04-15T12:33:28.660Z,21.50
2018-04-15T12:35:56.562Z,20.90
2018-04-15T12:38:25.245Z,20.80
2018-04-15T12:40:53.191Z,21.40
2018-04-15T12:43:20.959Z,20.80
2018-04-15T12:45:48.796Z,21.10
2018-04-15T12:48:17.995Z,19.60
2018-04-15T12:50:46.962Z,19.60
2018-04-15T12:53:14.633Z,20.60
2018-04-15T12:55:42.518Z,20.90
2018-04-15T12:58:10.293Z,21.40
2018-04-15T13:00:38.182Z,20.40
2018-04-15T13:03:06.041Z,20.80
2018-04-15T13:05:33.949Z,20.70
2018-04-15T13:08:01.897Z,20.40
2018-04-15T13:10:29.551Z,21.60
2018-04-15T13:12:57.989Z,21.50
2018-04-15T13:15:25.619Z,21.60
2018-04-15T13:17:54.045Z,23.00
2018-04-15T13:20:21.723Z,23.00
2018-04-15T13:22:49.463Z,23.20
2018-04-15T13:25:17.141Z,23.40
2018-04-15T13:27:44.791Z,23.40
2018-04-15T13:30:12.435Z,23.10
2018-04-15T13:32:40.114Z,23.10
2018-04-15T13:35:07.772Z,23.10
2018-04-15T13:37:36.122Z,22.60
2018-04-15T13:40:03.811Z,21.50
2018-04-15T13:42:31.485Z,21.00
2018-04-15T13:44:59.140Z,22.20
2018-04-15T13:47:27.627Z,21.80
2018-04-15T13:49:55.285Z,21.70
2018-04-15T13:52:23.112Z,21.90
2018-04-15T13:54:50.752Z,21.60
2018-04-15T13:57:18.420Z,20.90
2018-04-15T13:59:46.089Z,21.10
2018-04-15T14:02:13.740Z,21.70
2018-04-15T14:04:41.386Z,21.10
2018-04-15T14:07:09.072Z,21.90
2018-04-15T14:09:36.730Z,22.00
2018-04-15T14:12:04.396Z,21.60
2018-04-15T14:14:32.814Z,22.30
2018-04-15T14:17:00.451Z,22.30
2018-04-15T14:19:28.164Z,22.80
2018-04-15T14:21:55.823Z,23.10
2018-04-15T14:24:23.477Z,22.50
2018-04-15T14:26:51.108Z,22.40
2018-04-15T14:29:18.779Z,22.10
2018-04-15T14:31:46.394Z,21.90
2018-04-15T14:34:14.853Z,22.40
2018-04-15T14:36:42.567Z,22.40
2018-04-15T14:39:10.992Z,22.70
2018-04-15T14:41:38.662Z,22.70
2018-04-15T14:44:06.311Z,22.60
2018-04-15T14:46:34.728Z,22.80
2018-04-15T14:49:02.339Z,22.80
2018-04-15T14:51:30.004Z,22.20
2018-04-15T14:53:57.627Z,21.90
2018-04-15T14:56:26.062Z,21.50
2018-04-15T14:58:53.701Z,21.50
2018-04-15T15:01:22.157Z,21.70
2018-04-15T15:03:49.787Z,21.70
2018-04-15T15:06:17.452Z,21.60
2018-04-15T15:08:45.078Z,21.10
2018-04-15T15:11:12.775Z,20.90
2018-04-15T15:13:41.852Z,21.10
2018-04-15T15:16:09.560Z,20.20
2018-04-15T15:18:38.145Z,21.20
2018-04-15T15:21:05.811Z,21.10
2018-04-15T15:23:33.478Z,21.10
2018-04-15T15:26:01.178Z,21.30
2018-04-15T15:28:29.630Z,22.60
2018-04-15T15:30:57.397Z,22.60
2018-04-15T15:33:25.019Z,22.40
2018-04-15T15:35:52.680Z,22.00
2018-04-15T15:38:20.319Z,21.80
2018-04-15T15:40:47.981Z,21.80
2018-04-15T15:43:16.468Z,21.00
2018-04-15T15:45:44.216Z,21.00
2018-04-15T15:48:12.603Z,21.00
2018-04-15T15:50:41.072Z,21.60
2018-04-15T15:53:08.714Z,21.60
2018-04-15T15:55:36.449Z,21.50
2018-04-15T15:58:04.143Z,21.60
2018-04-15T16:00:31.758Z,21.80
2018-04-15T16:02:59.407Z,22.10
2018-04-15T16:05:27.099Z,21.30
2018-04-15T16:07:57.193Z,21.70
2018-04-15T16:10:24.890Z,21.60
2018-04-15T16:12:52.601Z,21.90
2018-04-15T16:15:20.242Z,21.90
2018-04-15T16:17:47.929Z,22.00
2018-04-15T16:20:15.590Z,21.80
2018-04-15T16:22:43.303Z,21.90
2018-04-15T16:25:10.961Z,21.80
2018-04-15T16:27:38.678Z,21.80
2018-04-15T16:30:07.142Z,22.00
2018-04-15T16:32:35.136Z,22.00
2018-04-15T16:35:03.084Z,20.80
2018-04-15T16:37:30.819Z,21.30
2018-04-15T16:39:59.295Z,21.80
2018-04-15T16:42:27.020Z,21.80
2018-04-15T16:44:55.683Z,21.60
2018-04-15T16:47:23.503Z,21.60
2018-04-15T16:49:51.204Z,21.70
2018-04-15T16:52:19.452Z,21.50
2018-04-15T16:54:47.129Z,21.50
2018-04-15T16:57:14.921Z,21.60
2018-04-15T16:59:42.664Z,21.70
2018-04-15T17:02:10.445Z,21.50
2018-04-15T17:04:38.177Z,21.70
2018-04-15T17:07:05.848Z,21.90
2018-04-15T17:09:33.594Z,21.70
2018-04-15T17:12:01.260Z,21.00
2018-04-15T17:14:28.924Z,20.80
2018-04-15T17:16:56.595Z,21.00
2018-04-15T17:19:24.279Z,21.10
2018-04-15T17:21:51.958Z,20.00
2018-04-15T17:24:19.637Z,20.90
2018-04-15T17:26:47.411Z,20.20
2018-04-15T17:29:15.435Z,20.80
2018-04-15T17:31:43.470Z,21.20
2018-04-15T17:34:11.395Z,21.30
2018-04-15T17:36:39.246Z,21.00
2018-04-15T17:39:07.134Z,21.40
2018-04-15T17:41:35.077Z,20.90
2018-04-15T17:44:03.552Z,20.70
2018-04-15T17:46:31.261Z,20.70
2018-04-15T17:48:58.915Z,20.60
2018-04-15T17:51:26.629Z,21.00
2018-04-15T17:53:55.893Z,21.20
2018-04-15T17:56:24.326Z,21.50
2018-04-15T17:58:52.139Z,21.50
2018-04-15T18:01:19.814Z,21.50
2018-04-15T18:03:47.505Z,20.90
2018-04-15T18:06:15.278Z,21.00
2018-04-15T18:08:42.962Z,21.30
2018-04-15T18:11:10.649Z,21.20
2018-04-15T18:13:38.298Z,20.80
2018-04-15T18:16:06.058Z,21.00
2018-04-15T18:18:33.670Z,20.50
2018-04-15T18:21:02.130Z,20.80
2018-04-15T18:23:29.945Z,21.10
2018-04-15T18:25:57.646Z,20.70
2018-04-15T18:28:25.345Z,20.50
2018-04-15T18:30:53.115Z,20.30
2018-04-15T18:33:20.844Z,20.10
2018-04-15T18:35:49.344Z,20.10
2018-04-15T18:38:17.318Z,20.10
2018-04-15T18:40:45.263Z,20.40
2018-04-15T18:43:13.295Z,20.40
2018-04-15T18:45:41.102Z,20.90
2018-04-15T18:48:09.918Z,21.00
2018-04-15T18:50:37.708Z,21.10
2018-04-15T18:53:05.536Z,21.10
2018-04-15T18:55:33.453Z,21.00
2018-04-15T18:58:02.049Z,21.00
2018-04-15T19:00:29.899Z,20.90
2018-04-15T19:02:57.646Z,20.20
2018-04-15T19:05:25.383Z,19.30
2018-04-15T19:07:53.124Z,19.90
2018-04-15T19:10:20.836Z,20.50
2018-04-15T19:12:48.725Z,20.70
2018-04-15T19:15:16.818Z,20.70
2018-04-15T19:17:45.309Z,20.70
2018-04-15T19:20:13.300Z,20.70
2018-04-15T19:22:41.320Z,20.60
2018-04-15T19:25:09.178Z,20.70
2018-04-15T19:27:36.975Z,20.70
2018-04-15T19:30:05.681Z,20.70
2018-04-15T19:32:33.733Z,20.70
2018-04-15T19:35:01.491Z,20.60
2018-04-15T19:37:30.121Z,20.30
2018-04-15T19:39:58.728Z,20.10
2018-04-15T19:42:26.455Z,20.10
2018-04-15T19:44:54.197Z,19.40
2018-04-15T19:47:22.580Z,19.40
2018-04-15T19:49:50.930Z,18.60
2018-04-15T19:52:20.774Z,19.30
2018-04-15T19:54:48.614Z,19.60
2018-04-15T19:57:18.783Z,20.00
2018-04-15T19:59:46.897Z,20.20
2018-04-15T20:02:15.083Z,20.40
2018-04-15T20:04:47.713Z,20.40
2018-04-15T20:07:16.801Z,20.40
2018-04-15T20:09:48.143Z,20.40
2018-04-15T20:12:16.575Z,20.30
2018-04-15T20:14:45.409Z,20.30
2018-04-15T20:17:13.391Z,20.40
2018-04-15T20:19:43.532Z,20.40
2018-04-15T20:22:12.411Z,20.30
2018-04-15T20:24:44.644Z,20.30
2018-04-15T20:27:13.867Z,20.30
2018-04-15T20:29:42.856Z,20.40
2018-04-15T20:32:11.127Z,20.30
2018-04-15T20:34:39.215Z,20.30
2018-04-15T20:37:11.490Z,20.30
2018-04-15T20:39:41.505Z,20.20
2018-04-15T20:42:11.844Z,20.20
2018-04-15T20:44:39.874Z,20.10
2018-04-15T20:47:07.895Z,20.10
2018-04-15T20:49:37.235Z,20.00
2018-04-15T20:52:05.476Z,19.70
2018-04-15T20:54:33.332Z,19.60
2018-04-15T20:57:01.167Z,19.50
2018-04-15T20:59:29.096Z,19.60
2018-04-15T21:01:57.101Z,19.80
2018-04-15T21:04:24.868Z,19.90
2018-04-15T21:06:52.600Z,19.90
2018-04-15T21:09:21.098Z,19.90
2018-04-15T21:11:48.886Z,19.90
2018-04-15T21:14:16.721Z,19.80
2018-04-15T21:16:44.491Z,19.80
2018-04-15T21:19:12.221Z,19.80
2018-04-15T21:21:40.696Z,19.80
2018-04-15T21:24:08.827Z,19.80
2018-04-15T21:26:36.800Z,19.80
2018-04-15T21:29:04.838Z,19.50
2018-04-15T21:31:32.634Z,19.40
2018-04-15T21:34:02.199Z,19.50
2018-04-15T21:36:29.921Z,19.20
2018-04-15T21:38:57.824Z,18.60
2018-04-15T21:41:26.688Z,18.60
2018-04-15T21:43:54.574Z,19.00
2018-04-15T21:46:22.460Z,19.30
2018-04-15T21:48:50.214Z,19.40
2018-04-15T21:51:18.080Z,19.20
2018-04-15T21:53:45.870Z,19.10
2018-04-15T21:56:13.704Z,18.80
2018-04-15T21:58:41.767Z,18.90
2018-04-15T22:01:09.618Z,19.10
2018-04-15T22:03:40.361Z,19.10
2018-04-15T22:06:08.313Z,19.10
2018-04-15T22:08:36.211Z,19.20
2018-04-15T22:11:04.143Z,19.10
2018-04-15T22:13:33.938Z,19.10
2018-04-15T22:16:09.518Z,19.20
2018-04-15T22:18:38.811Z,19.20
2018-04-15T22:21:09.727Z,19.10
2018-04-15T22:23:37.729Z,19.10
2018-04-15T22:26:05.787Z,18.90
2018-04-15T22:28:34.950Z,19.00
2018-04-15T22:31:08.693Z,19.00
2018-04-15T22:33:42.065Z,19.00
2018-04-15T22:36:10.203Z,19.00
2018-04-15T22:38:39.797Z,18.90
2018-04-15T22:44:23.956Z,18.90
2018-04-15T22:46:52.601Z,18.80
2018-04-15T22:49:23.406Z,18.90
2018-04-15T22:51:51.200Z,18.80
2018-04-15T22:54:19.882Z,18.70
2018-04-15T22:56:48.972Z,18.70
2018-04-15T22:59:17.182Z,18.80
2018-04-15T23:01:47.635Z,18.80
2018-04-15T23:04:15.850Z,18.70
2018-04-15T23:06:43.809Z,18.70
2018-04-15T23:09:11.720Z,18.60
2018-04-15T23:11:39.406Z,18.40
2018-04-15T23:14:07.202Z,18.40
2018-04-15T23:16:34.972Z,18.00
2018-04-15T23:19:02.763Z,17.90
2018-04-15T23:21:30.628Z,18.00
2018-04-15T23:24:02.725Z,18.00
2018-04-15T23:26:30.667Z,18.00
2018-04-15T23:28:58.573Z,18.00
2018-04-15T23:31:26.499Z,17.60
2018-04-15T23:33:55.118Z,17.60
2018-04-15T23:36:23.011Z,17.60
2018-04-15T23:38:51.019Z,17.70
2018-04-15T23:41:19.093Z,17.90
2018-04-15T23:43:47.015Z,17.80
2018-04-15T23:46:14.950Z,17.80
2018-04-15T23:48:43.124Z,17.80
2018-04-15T23:51:15.559Z,17.70
2018-04-15T23:53:43.314Z,17.90
2018-04-15T23:56:11.109Z,17.90
2018-04-15T23:58:39.146Z,18.00
